McMilan Corner, Arkansas
Current Conditions -  °F | °C
As of 11:53 AM on Thursday 29 Jan 2015 (Local Time) from KGLH Reporting Station
Clear Clear  
Wind Chill: 67°   Ceiling: Unl
Heat Index: 67°   Visibility: 10mi
Dew Point: 51°   Wind: 15mph
Humidity: 57%   Direction: 260°W
Pressure: 30.14"   Gusts: NA
Location:  33.3324°N, 91.3183°W
Report Text: KGLH 291753Z AUTO 26013KT 10SM CLR 19/11 A3014 RMK AO2 SLP213 T01940106 10194 20117 58002
Loading
Personal Weather Stations






























Interactive Weather Map New forecast layout! Learn more

10-Day Weather Forecast

Advertisements
Track Severe Weather on mobile